Time;durP1;ratioP1;P1;durP2;ratioP2;P2;SDS_P1;SDS_P2;PMS_P1;PMS_P2;Temp;Humidity;BMP_temperature;BMP_pressure;BME280_temperature;BME280_humidity;BME280_pressure;Samples;Min_cycle;Max_cycle;Signal;HPM_P1;HPM_P2
2022/09/27 00:00:26;;;;;;;2.15;0.70;;;;;;;11.26;100.00;98511.00;5232530;28;20052;-78
2022/09/27 00:02:56;;;;;;;1.73;0.70;;;;;;;11.14;100.00;98506.63;5231381;28;20021;-78
2022/09/27 00:05:27;;;;;;;1.85;0.73;;;;;;;11.14;100.00;98504.00;5232730;28;20111;-78
2022/09/27 00:07:58;;;;;;;2.35;0.77;;;;;;;11.13;100.00;98499.72;5213405;28;20107;-78
2022/09/27 00:10:28;;;;;;;1.75;0.70;;;;;;;11.10;100.00;98497.34;5228334;28;20035;-78
2022/09/27 00:12:59;;;;;;;1.05;0.68;;;;;;;11.13;100.00;98501.53;5233148;28;20497;-78
2022/09/27 00:15:29;;;;;;;1.65;0.70;;;;;;;11.13;100.00;98493.69;5229977;28;20662;-78
2022/09/27 00:17:59;;;;;;;1.23;0.50;;;;;;;11.15;100.00;98490.03;5220550;28;20183;-78
2022/09/27 00:20:29;;;;;;;0.55;0.40;;;;;;;11.20;100.00;98487.06;5239397;28;20366;-78
2022/09/27 00:23:00;;;;;;;5.28;0.80;;;;;;;11.25;100.00;98493.63;5236409;28;20034;-78
2022/09/27 00:25:30;;;;;;;2.65;0.70;;;;;;;11.26;100.00;98486.66;5237234;28;20027;-78
2022/09/27 00:28:01;;;;;;;1.42;0.77;;;;;;;11.30;100.00;98486.28;5231639;28;20029;-78
2022/09/27 00:30:31;;;;;;;3.42;0.77;;;;;;;11.37;100.00;98482.31;5210965;28;20604;-78
2022/09/27 00:33:02;;;;;;;1.20;0.50;;;;;;;11.40;100.00;98483.84;5224643;28;20622;-78
2022/09/27 00:35:32;;;;;;;1.95;0.63;;;;;;;11.36;100.00;98472.81;5232066;28;20031;-78
2022/09/27 00:38:02;;;;;;;0.88;0.47;;;;;;;11.41;100.00;98473.28;5229051;28;20060;-78
2022/09/27 00:40:33;;;;;;;0.55;0.50;;;;;;;11.33;100.00;98467.78;5233450;28;20086;-78
2022/09/27 00:43:17;;;;;;;0.50;0.40;;;;;;;11.27;100.00;98460.38;5233615;28;20025;-78
2022/09/27 00:46:01;;;;;;;1.38;0.60;;;;;;;11.30;100.00;98459.31;5231200;28;20029;-78
2022/09/27 00:48:35;;;;;;;1.65;0.70;;;;;;;11.33;100.00;98453.88;5238067;28;20019;-78
2022/09/27 00:51:08;;;;;;;1.10;0.50;;;;;;;11.32;100.00;98454.81;5239114;28;20056;-78
2022/09/27 00:53:45;;;;;;;0.63;0.45;;;;;;;11.29;100.00;98445.41;5232193;28;20091;-78
2022/09/27 00:56:17;;;;;;;;;;;;;;;11.21;100.00;98442.53;5242483;28;20059;-78
2022/09/27 00:58:58;;;;;;;2.00;0.60;;;;;;;11.33;100.00;98438.19;5236392;28;20001;-78
2022/09/27 01:01:29;;;;;;;1.92;0.52;;;;;;;11.32;100.00;98446.97;5214994;28;20044;-78
2022/09/27 01:04:05;;;;;;;1.13;0.50;;;;;;;11.24;100.00;98441.47;5233266;28;20028;-78
2022/09/27 01:06:37;;;;;;;1.58;0.50;;;;;;;11.29;100.00;98434.94;5211754;28;20032;-77
2022/09/27 01:09:10;;;;;;;1.05;0.50;;;;;;;11.29;100.00;98445.41;5236783;28;20032;-78
2022/09/27 01:11:44;;;;;;;1.95;0.55;;;;;;;11.25;100.00;98436.13;5234837;28;20045;-78
2022/09/27 01:14:37;;;;;;;1.20;0.50;;;;;;;11.21;100.00;98426.00;5213815;28;20076;-78
2022/09/27 01:17:23;;;;;;;1.63;0.60;;;;;;;11.27;100.00;98430.78;5191053;28;20434;-78
2022/09/27 01:20:05;;;;;;;;;;;;;;;11.16;100.00;98423.72;5242371;28;20716;-78
2022/09/27 01:23:00;;;;;;;1.00;0.40;;;;;;;11.23;100.00;98424.09;5240100;28;20275;-78
2022/09/27 01:25:48;;;;;;;0.85;0.40;;;;;;;11.27;100.00;98418.53;5241028;28;20113;-78
2022/09/27 01:28:36;;;;;;;0.75;0.50;;;;;;;11.30;100.00;98418.31;5233312;28;20035;-78
2022/09/27 01:31:15;;;;;;;0.50;0.35;;;;;;;11.43;100.00;98421.69;5225859;28;20107;-78
2022/09/27 01:34:01;;;;;;;0.57;0.47;;;;;;;11.28;100.00;98417.59;5235318;28;20028;-78
2022/09/27 01:36:53;;;;;;;1.13;0.50;;;;;;;11.32;100.00;98421.69;5236710;28;20203;-78
2022/09/27 01:39:44;;;;;;;1.10;0.28;;;;;;;11.33;100.00;98415.50;5231772;28;20107;-78
2022/09/27 01:42:24;;;;;;;1.00;0.45;;;;;;;11.36;100.00;98419.66;5255474;22;20037;-74
2022/09/27 01:45:33;;;;;;;0.85;0.40;;;;;;;11.39;100.00;98415.03;5205325;28;20069;-74
2022/09/27 01:48:12;;;;;;;0.65;0.45;;;;;;;11.48;100.00;98414.34;5209999;28;20029;-74
2022/09/27 01:50:50;;;;;;;0.40;0.40;;;;;;;11.44;100.00;98404.25;5207515;28;20486;-72
2022/09/27 01:53:29;;;;;;;0.93;0.50;;;;;;;11.32;100.00;98405.97;5212464;28;20033;-74
2022/09/27 01:56:04;;;;;;;0.95;0.45;;;;;;;11.29;100.00;98407.97;5219242;28;20040;-73
2022/09/27 01:58:48;;;;;;;0.55;0.45;;;;;;;11.43;100.00;98397.34;5216407;28;20028;-73
2022/09/27 02:01:21;;;;;;;0.82;0.40;;;;;;;11.32;100.00;98398.16;5212507;28;20278;-74
2022/09/27 02:03:53;;;;;;;1.25;0.50;;;;;;;11.38;100.00;98395.06;5193150;28;20026;-73
2022/09/27 02:06:33;;;;;;;2.38;0.40;;;;;;;11.43;100.00;98398.16;5212467;28;20033;-73
2022/09/27 02:09:17;;;;;;;1.00;0.50;;;;;;;11.45;100.00;98392.84;5212336;28;20029;-74
2022/09/27 02:11:54;;;;;;;0.60;0.40;;;;;;;11.54;100.00;98387.75;5211361;28;20025;-73
2022/09/27 02:14:43;;;;;;;0.90;0.40;;;;;;;11.63;100.00;98381.03;5202751;28;20029;-73
2022/09/27 02:17:37;;;;;;;0.80;0.40;;;;;;;11.49;100.00;98389.03;5210743;28;20070;-73
2022/09/27 02:20:16;;;;;;;1.35;0.60;;;;;;;11.55;100.00;98383.34;5215842;28;20560;-73
2022/09/27 02:23:13;;;;;;;3.13;0.40;;;;;;;11.59;100.00;98388.28;5191990;28;20038;-74
2022/09/27 02:25:56;;;;;;;0.73;0.40;;;;;;;11.58;100.00;98383.19;5218282;28;20056;-73
2022/09/27 02:28:37;;;;;;;0.90;0.50;;;;;;;11.60;100.00;98384.72;5215066;28;20025;-74
2022/09/27 02:31:08;;;;;;;0.80;0.38;;;;;;;11.56;100.00;98380.66;5210919;28;20079;-74
2022/09/27 02:33:47;;;;;;;1.67;0.57;;;;;;;11.61;100.00;98382.94;5213037;28;20024;-74
2022/09/27 02:36:18;;;;;;;0.65;0.40;;;;;;;11.58;100.00;98373.53;5211358;28;20380;-74
2022/09/27 02:38:48;;;;;;;1.80;0.57;;;;;;;11.56;100.00;98380.66;5210928;28;20573;-74
2022/09/27 02:41:21;;;;;;;1.50;0.63;;;;;;;11.52;100.00;98375.72;5212013;28;20124;-73
2022/09/27 02:43:55;;;;;;;0.85;0.50;;;;;;;11.58;100.00;98378.75;5211197;28;20025;-74
2022/09/27 02:46:36;;;;;;;0.60;0.40;;;;;;;11.47;100.00;98378.69;5212860;28;20103;-74
2022/09/27 02:49:31;;;;;;;0.75;0.47;;;;;;;11.44;100.00;98378.91;5216336;28;20256;-74
2022/09/27 02:52:13;;;;;;;0.80;0.50;;;;;;;11.59;100.00;98375.19;5220152;28;20401;-74
2022/09/27 02:54:58;;;;;;;1.20;0.50;;;;;;;11.51;100.00;98372.28;5215630;28;20067;-73
2022/09/27 02:58:03;;;;;;;0.68;0.40;;;;;;;11.54;100.00;98376.44;5217299;28;20472;-73
2022/09/27 03:00:46;;;;;;;1.58;0.60;;;;;;;11.60;100.00;98368.19;5210089;28;20475;-74
2022/09/27 03:03:27;;;;;;;2.35;0.57;;;;;;;11.56;100.00;98372.81;5211712;28;20307;-74
2022/09/27 03:06:06;;;;;;;1.58;0.60;;;;;;;11.55;100.00;98368.50;5213365;28;20429;-73
2022/09/27 03:08:37;;;;;;;2.80;0.82;;;;;;;11.48;100.00;98369.88;5209922;28;20407;-74
2022/09/27 03:11:08;;;;;;;1.75;0.80;;;;;;;11.46;100.00;98368.34;5212627;28;20283;-74
2022/09/27 03:13:38;;;;;;;3.50;0.70;;;;;;;11.50;100.00;98365.41;5210303;28;20331;-74
2022/09/27 03:16:09;;;;;;;1.33;0.70;;;;;;;11.51;100.00;98361.84;5212104;28;20036;-74
2022/09/27 03:18:39;;;;;;;1.38;0.70;;;;;;;11.41;100.00;98362.63;5220992;28;20024;-74
2022/09/27 03:21:10;;;;;;;1.95;0.85;;;;;;;11.48;100.00;98356.81;5218648;28;20490;-73
2022/09/27 03:23:40;;;;;;;2.08;0.70;;;;;;;11.50;100.00;98360.16;5210387;28;20018;-73
2022/09/27 03:26:11;;;;;;;1.67;0.70;;;;;;;11.61;100.00;98356.78;5216602;28;20056;-73
2022/09/27 03:28:41;;;;;;;2.47;0.60;;;;;;;11.60;100.00;98360.34;5213914;28;20029;-73
2022/09/27 03:31:13;;;;;;;1.70;0.60;;;;;;;11.51;100.00;98354.00;5210526;28;20064;-73
2022/09/27 03:33:43;;;;;;;1.00;0.52;;;;;;;11.42;100.00;98357.28;5211578;28;20556;-73
2022/09/27 03:36:14;;;;;;;1.75;0.70;;;;;;;11.46;100.00;98352.66;5210101;28;20037;-73
2022/09/27 03:38:44;;;;;;;1.40;0.73;;;;;;;11.43;100.00;98355.50;5210781;28;20526;-73
2022/09/27 03:41:15;;;;;;;2.95;0.95;;;;;;;11.51;100.00;98350.53;5210555;28;20376;-73
2022/09/27 03:43:45;;;;;;;3.25;0.90;;;;;;;11.46;100.00;98350.03;5211126;28;20292;-73
2022/09/27 03:46:15;;;;;;;1.23;0.70;;;;;;;11.48;100.00;98345.53;5210472;28;20048;-73
2022/09/27 03:48:46;;;;;;;1.58;0.70;;;;;;;11.51;100.00;98348.75;5216719;28;20437;-73
2022/09/27 03:51:16;;;;;;;1.42;0.60;;;;;;;11.42;100.00;98348.63;5217380;28;20064;-72
2022/09/27 03:53:47;;;;;;;1.67;0.90;;;;;;;11.33;100.00;98347.50;5210216;28;20525;-73
2022/09/27 03:56:17;;;;;;;1.30;0.70;;;;;;;11.38;100.00;98342.78;5215261;28;20025;-73
2022/09/27 03:58:47;;;;;;;2.08;0.80;;;;;;;11.42;100.00;98335.53;5211839;28;20228;-72
2022/09/27 04:01:18;;;;;;;1.85;1.05;;;;;;;11.36;100.00;98335.97;5211527;28;20033;-73
2022/09/27 04:03:49;;;;;;;1.98;0.95;;;;;;;11.56;100.00;98344.03;5210066;28;20773;-73
2022/09/27 04:06:19;;;;;;;2.95;0.90;;;;;;;11.38;100.00;98345.38;5210703;28;20453;-73
2022/09/27 04:08:49;;;;;;;3.38;0.90;;;;;;;11.48;100.00;98346.34;5211766;28;20467;-73
2022/09/27 04:11:22;;;;;;;2.85;0.98;;;;;;;11.46;100.00;98340.41;5209530;28;20029;-73
2022/09/27 04:13:53;;;;;;;3.58;1.20;;;;;;;11.40;100.00;98353.09;5211249;28;20167;-73
2022/09/27 04:16:24;;;;;;;2.10;1.02;;;;;;;11.43;100.00;98338.03;5208359;28;20072;-73
2022/09/27 04:18:54;;;;;;;2.03;0.90;;;;;;;11.36;100.00;98335.97;5219714;28;20091;-73
2022/09/27 04:21:24;;;;;;;3.17;0.68;;;;;;;11.32;100.00;98338.00;5219930;28;20029;-73
2022/09/27 04:23:55;;;;;;;1.38;0.82;;;;;;;11.47;100.00;98334.22;5210141;28;20503;-73
2022/09/27 04:26:25;;;;;;;2.83;1.00;;;;;;;11.43;100.00;98338.03;5218212;28;20498;-73
2022/09/27 04:28:56;;;;;;;2.90;1.10;;;;;;;11.42;100.00;98335.53;5208432;28;20277;-73
2022/09/27 04:31:27;;;;;;;3.58;1.10;;;;;;;11.30;100.00;98329.41;5211347;28;20029;-72
2022/09/27 04:33:58;;;;;;;2.08;0.95;;;;;;;11.34;100.00;98333.50;5201946;28;20029;-73
2022/09/27 04:36:28;;;;;;;2.20;1.10;;;;;;;11.33;100.00;98333.59;5206706;28;20021;-73
2022/09/27 04:39:01;;;;;;;3.47;1.45;;;;;;;11.36;100.00;98331.59;5210551;28;20051;-73
2022/09/27 04:41:32;;;;;;;3.65;1.10;;;;;;;11.43;100.00;98324.94;5193815;28;20039;-73
2022/09/27 04:44:03;;;;;;;3.90;1.15;;;;;;;11.43;100.00;98326.75;5208132;28;20030;-73
2022/09/27 04:46:34;;;;;;;3.08;1.20;;;;;;;11.29;100.00;98329.53;5210389;28;20375;-73
2022/09/27 04:49:04;;;;;;;5.22;1.30;;;;;;;11.39;100.00;98339.19;5214488;28;20032;-73
2022/09/27 04:51:34;;;;;;;5.45;1.67;;;;;;;11.41;100.00;98337.31;5216944;28;20029;-73
2022/09/27 04:54:05;;;;;;;2.80;1.27;;;;;;;11.49;100.00;98339.34;5211791;28;20036;-73
2022/09/27 04:56:35;;;;;;;4.22;1.30;;;;;;;11.37;100.00;98343.72;5217629;28;20032;-73
2022/09/27 04:59:05;;;;;;;6.00;1.33;;;;;;;11.40;100.00;98338.25;5208032;28;20029;-72
2022/09/27 05:01:36;;;;;;;3.75;1.55;;;;;;;11.45;100.00;98351.81;5211870;28;20521;-73
2022/09/27 05:04:06;;;;;;;7.40;1.95;;;;;;;11.42;100.00;98349.44;5208361;28;20037;-73
2022/09/27 05:06:37;;;;;;;6.18;2.45;;;;;;;11.38;100.00;98350.63;5190249;28;20411;-72
2022/09/27 05:09:07;;;;;;;4.05;1.80;;;;;;;11.44;100.00;98352.75;5208350;28;20057;-72
2022/09/27 05:11:37;;;;;;;4.18;2.15;;;;;;;11.38;100.00;98342.78;5210789;28;20409;-72
2022/09/27 05:14:08;;;;;;;4.57;1.95;;;;;;;11.42;100.00;98346.81;5186318;28;20615;-72
2022/09/27 05:16:38;;;;;;;4.38;1.80;;;;;;;11.29;100.00;98351.28;5207297;28;20033;-72
2022/09/27 05:19:08;;;;;;;5.68;1.90;;;;;;;11.37;100.00;98356.78;5217406;28;20037;-72
2022/09/27 05:21:39;;;;;;;3.75;1.50;;;;;;;11.36;100.00;98357.75;5216998;28;20025;-72
2022/09/27 05:24:09;;;;;;;6.97;2.20;;;;;;;11.33;100.00;98368.44;5204749;28;20029;-72
2022/09/27 05:26:40;;;;;;;7.78;1.90;;;;;;;11.34;100.00;98366.63;5217238;28;20154;-72
2022/09/27 05:29:11;;;;;;;3.55;1.65;;;;;;;11.27;100.00;98358.41;5206795;28;20029;-72
2022/09/27 05:31:41;;;;;;;4.68;1.58;;;;;;;11.37;100.00;98356.78;5208192;28;20468;-71
2022/09/27 05:34:11;;;;;;;5.88;1.80;;;;;;;11.42;100.00;98359.06;5187707;28;20037;-71
2022/09/27 05:36:42;;;;;;;4.07;1.40;;;;;;;11.34;100.00;98366.63;5195653;28;20036;-71
2022/09/27 05:39:15;;;;;;;4.13;1.40;;;;;;;11.47;100.00;98363.00;5209681;28;20032;-72
2022/09/27 05:41:46;;;;;;;2.78;1.38;;;;;;;11.51;100.00;98369.69;5210753;28;20041;-71
2022/09/27 05:44:16;;;;;;;5.50;1.70;;;;;;;11.43;100.00;98366.78;5214590;28;20490;-71
2022/09/27 05:46:47;;;;;;;4.22;1.50;;;;;;;11.46;100.00;98366.56;5210758;28;20022;-72
2022/09/27 05:49:17;;;;;;;3.53;1.40;;;;;;;11.42;100.00;98367.72;5209208;28;20030;-72
2022/09/27 05:51:47;;;;;;;4.70;1.33;;;;;;;11.46;100.00;98377.00;5214360;28;20407;-72
2022/09/27 05:54:18;;;;;;;4.57;1.20;;;;;;;11.36;100.00;98378.66;5219234;28;20040;-72
2022/09/27 05:56:48;;;;;;;8.73;1.27;;;;;;;11.39;100.00;98367.13;5217179;28;20021;-72
2022/09/27 05:59:18;;;;;;;3.78;1.00;;;;;;;11.53;100.00;98367.78;5213019;28;20045;-72
2022/09/27 06:01:49;;;;;;;2.10;0.90;;;;;;;11.38;100.00;98375.91;5212831;28;20033;-72
2022/09/27 06:04:20;;;;;;;3.47;1.20;;;;;;;11.57;100.00;98386.72;5213668;28;20025;-72
2022/09/27 06:06:50;;;;;;;4.80;1.15;;;;;;;11.41;100.00;98384.38;5212175;28;20036;-72
2022/09/27 06:09:21;;;;;;;3.35;1.10;;;;;;;11.44;100.00;98394.59;5213008;28;20083;-72
2022/09/27 06:11:51;;;;;;;5.47;1.10;;;;;;;11.52;100.00;98394.03;5212436;28;20097;-72
2022/09/27 06:14:22;;;;;;;3.00;1.33;;;;;;;11.59;100.00;98393.50;5213383;28;20029;-72
2022/09/27 06:16:53;;;;;;;3.72;1.40;;;;;;;11.51;100.00;98397.59;5212189;28;20037;-72
2022/09/27 06:19:24;;;;;;;3.13;1.63;;;;;;;11.41;100.00;98397.44;5224025;28;20032;-72
2022/09/27 06:21:54;;;;;;;7.47;2.47;;;;;;;11.41;100.00;98396.63;5217652;28;20029;-72
2022/09/27 06:24:24;;;;;;;5.70;2.00;;;;;;;11.42;100.00;98409.56;5216476;28;20494;-72
2022/09/27 06:26:55;;;;;;;3.97;2.00;;;;;;;11.44;100.00;98407.69;5214966;28;20045;-72
2022/09/27 06:29:25;;;;;;;4.85;2.20;;;;;;;11.39;100.00;98407.19;5213246;28;20083;-72
2022/09/27 06:31:56;;;;;;;7.03;2.65;;;;;;;11.36;100.00;98407.44;5211258;28;20029;-72
2022/09/27 06:34:27;;;;;;;6.97;2.88;;;;;;;11.40;100.00;98421.94;5212301;28;20140;-71
2022/09/27 06:36:57;;;;;;;4.68;2.38;;;;;;;11.31;100.00;98417.38;5213472;28;20574;-72
2022/09/27 06:39:27;;;;;;;4.18;2.40;;;;;;;11.29;100.00;98423.66;5208198;28;20336;-72
2022/09/27 06:41:58;;;;;;;5.88;2.60;;;;;;;11.40;100.00;98426.31;5206158;28;20032;-72
2022/09/27 06:44:28;;;;;;;5.65;2.63;;;;;;;11.47;100.00;98424.94;5205194;28;20029;-72
2022/09/27 06:46:59;;;;;;;8.15;2.60;;;;;;;11.29;100.00;98428.91;5203214;28;20499;-72
2022/09/27 06:49:30;;;;;;;6.47;2.40;;;;;;;11.41;100.00;98438.47;5219956;28;20059;-72
2022/09/27 06:52:00;;;;;;;6.85;2.70;;;;;;;11.26;100.00;98439.59;5207445;28;20042;-72
2022/09/27 06:54:31;;;;;;;4.50;2.20;;;;;;;11.20;100.00;98446.09;5209148;28;20151;-71
2022/09/27 06:57:01;;;;;;;4.40;1.90;;;;;;;11.37;100.00;98447.47;5216875;28;20490;-72
2022/09/27 07:02:20;;;;;;;4.10;1.70;;;;;;;11.40;100.00;98453.31;5207745;28;20098;-72
2022/09/27 07:04:51;;;;;;;4.55;1.80;;;;;;;11.23;100.00;98453.69;5204990;28;20021;-72
2022/09/27 07:07:21;;;;;;;5.65;1.80;;;;;;;11.44;100.00;98449.53;5207847;28;20029;-72
2022/09/27 07:09:52;;;;;;;5.82;2.00;;;;;;;11.27;100.00;98456.94;5208294;28;20087;-72
2022/09/27 07:12:22;;;;;;;3.65;1.65;;;;;;;11.34;100.00;98458.16;5207729;28;20730;-72
2022/09/27 07:14:54;;;;;;;6.07;2.08;;;;;;;11.33;100.00;98462.56;5208657;28;20063;-71
2022/09/27 07:17:26;;;;;;;6.55;1.80;;;;;;;11.46;100.00;98459.88;5208098;28;20120;-72
2022/09/27 07:19:56;;;;;;;6.93;2.13;;;;;;;11.41;100.00;98475.09;5197747;28;20121;-72
2022/09/27 07:22:28;;;;;;;7.13;2.83;;;;;;;11.52;100.00;98472.50;5211030;28;20032;-72
2022/09/27 07:24:59;;;;;;;6.55;2.40;;;;;;;11.27;100.00;98478.69;5207263;28;20025;-72
2022/09/27 07:27:31;;;;;;;8.23;2.53;;;;;;;11.33;100.00;98478.25;5215600;28;20391;-72
2022/09/27 07:30:02;;;;;;;4.95;2.30;;;;;;;11.26;100.00;98471.78;5208537;28;20021;-72
2022/09/27 07:32:35;;;;;;;7.45;2.38;;;;;;;11.36;100.00;98472.81;5208242;28;20031;-72
2022/09/27 07:35:07;;;;;;;4.80;2.00;;;;;;;11.39;100.00;98480.41;5208753;28;20033;-72
2022/09/27 07:37:37;;;;;;;5.72;2.42;;;;;;;11.27;100.00;98483.09;5207622;28;20053;-72
2022/09/27 07:40:09;;;;;;;4.82;2.55;;;;;;;11.09;100.00;98485.22;5190809;28;20506;-72
2022/09/27 07:42:40;;;;;;;5.47;2.35;;;;;;;11.11;100.00;98488.56;5244448;22;20523;-75
2022/09/27 07:45:11;;;;;;;4.22;2.40;;;;;;;11.34;100.00;98495.63;5265647;28;20032;-75
2022/09/27 07:47:41;;;;;;;5.22;2.22;;;;;;;11.24;100.00;98494.59;5252438;28;20109;-77
2022/09/27 07:50:11;;;;;;;5.72;2.20;;;;;;;11.34;100.00;98490.38;5250470;28;20490;-76
2022/09/27 07:52:44;;;;;;;3.78;1.95;;;;;;;11.47;100.00;98485.09;5251280;28;20039;-76
2022/09/27 07:55:14;;;;;;;5.60;2.17;;;;;;;11.30;100.00;98491.53;5253831;28;20028;-75
2022/09/27 07:57:45;;;;;;;4.35;2.00;;;;;;;11.39;100.00;98503.94;5247102;28;20079;-72
2022/09/27 08:00:18;;;;;;;7.97;2.40;;;;;;;11.26;100.00;98502.34;5250843;28;20027;-76
2022/09/27 08:02:48;;;;;;;4.63;2.08;;;;;;;11.31;100.00;98501.03;5251205;28;20025;-75
2022/09/27 08:05:19;;;;;;;4.53;2.40;;;;;;;11.17;100.00;98509.06;5251760;28;20027;-75
2022/09/27 08:07:55;;;;;;;4.30;2.47;;;;;;;11.22;100.00;98512.16;5233003;28;20042;-75
2022/09/27 08:10:30;;;;;;;4.80;2.80;;;;;;;11.16;100.00;98512.63;5253416;28;20044;-72
2022/09/27 08:13:02;;;;;;;6.72;3.58;;;;;;;11.25;100.00;98509.31;5252712;28;20027;-76
2022/09/27 08:15:37;;;;;;;6.40;3.17;;;;;;;11.34;100.00;98520.91;5253984;28;20031;-75
2022/09/27 08:18:11;;;;;;;;;;;;;;;11.36;100.00;98522.47;5249955;28;20035;-77
2022/09/27 08:20:41;;;;;;;6.85;3.60;;;;;;;11.32;100.00;98518.44;5247462;28;19912;-75
2022/09/27 08:23:11;;;;;;;7.63;3.92;;;;;;;11.55;100.00;98514.13;5249175;28;20032;-76
2022/09/27 08:25:43;;;;;;;7.47;3.83;;;;;;;11.59;100.00;98519.06;5255024;28;20027;-76
2022/09/27 08:28:13;;;;;;;8.40;4.05;;;;;;;11.66;100.00;98519.47;5250274;28;20107;-72
2022/09/27 08:30:43;;;;;;;6.07;3.80;;;;;;;11.72;100.00;98526.88;5252478;28;20107;-74
2022/09/27 08:33:13;;;;;;;7.07;3.58;;;;;;;11.88;100.00;98528.25;5250701;28;22406;-77
2022/09/27 08:35:44;;;;;;;6.13;2.85;;;;;;;12.02;100.00;98530.72;5252090;28;20046;-76
2022/09/27 08:38:14;;;;;;;6.45;3.20;;;;;;;12.01;100.00;98531.66;5250427;28;20034;-76
2022/09/27 08:41:11;;;;;;;8.25;2.85;;;;;;;11.86;100.00;98540.63;5231268;28;20035;-76
2022/09/27 08:43:44;;;;;;;;;;;;;;;11.92;100.00;98540.16;5250644;28;20028;-75
2022/09/27 08:46:29;;;;;;;7.68;2.80;;;;;;;11.88;100.00;98543.13;5251895;28;20003;-74
2022/09/27 08:49:24;;;;;;;7.10;2.88;;;;;;;11.89;100.00;98540.41;5249799;28;20169;-76
2022/09/27 08:51:57;;;;;;;8.40;3.33;;;;;;;11.84;100.00;98544.28;5251375;28;20111;-76
2022/09/27 08:54:30;;;;;;;7.88;2.97;;;;;;;11.85;100.00;98549.44;5250840;28;20020;-77
2022/09/27 08:57:11;;;;;;;4.97;2.80;;;;;;;11.87;100.00;98552.78;5257470;28;20028;-75
2022/09/27 09:00:08;;;;;;;6.72;2.85;;;;;;;11.59;100.00;98560.13;5228884;28;20029;-76
2022/09/27 09:02:40;;;;;;;5.00;2.42;;;;;;;11.65;100.00;98567.50;5233967;28;20067;-76
2022/09/27 09:05:16;;;;;;;5.32;2.75;;;;;;;11.74;100.00;98565.06;5227979;28;20430;-75
2022/09/27 09:07:53;;;;;;;4.35;2.15;;;;;;;11.75;100.00;98566.72;5248801;28;20024;-75
2022/09/27 09:14:07;;;;;;;4.22;1.55;;;;;;;11.58;100.00;98569.72;5246823;28;20043;-76
2022/09/27 09:16:42;;;;;;;4.97;1.95;;;;;;;11.27;100.00;98582.44;5252850;28;20505;-77
2022/09/27 09:19:46;;;;;;;7.53;2.78;;;;;;;11.28;100.00;98582.31;5250266;28;20047;-76
2022/09/27 09:22:44;;;;;;;5.55;3.05;;;;;;;11.20;100.00;98584.66;5257391;28;20024;-77
2022/09/27 09:25:27;;;;;;;3.92;2.53;;;;;;;11.30;100.00;98590.88;5254994;28;20107;-75
2022/09/27 09:28:11;;;;;;;5.88;2.58;;;;;;;11.37;100.00;98589.53;5254627;28;20269;-75
2022/09/27 09:30:50;;;;;;;7.80;2.55;;;;;;;11.32;100.00;98591.63;5254494;28;20571;-75
2022/09/27 09:33:28;;;;;;;7.45;2.50;;;;;;;11.29;100.00;98591.00;5256323;28;20119;-76
2022/09/27 09:36:12;;;;;;;5.10;2.50;;;;;;;11.26;100.00;98592.03;5252733;28;20073;-75
2022/09/27 09:39:09;;;;;;;6.32;1.92;;;;;;;11.38;100.00;98603.44;5234234;28;20029;-75
2022/09/27 09:41:42;;;;;;;3.63;1.98;;;;;;;11.31;100.00;98600.41;5253618;28;20063;-75
2022/09/27 09:44:38;;;;;;;4.00;1.90;;;;;;;11.35;100.00;98594.03;5254962;28;20024;-78
2022/09/27 09:47:23;;;;;;;5.40;1.95;;;;;;;11.48;100.00;98596.63;5253370;28;20047;-77
2022/09/27 09:50:00;;;;;;;3.92;2.03;;;;;;;11.51;100.00;98602.47;5258430;28;20059;-77
2022/09/27 09:52:41;;;;;;;5.68;1.67;;;;;;;11.54;100.00;98597.03;5259453;28;20054;-75
2022/09/27 09:55:18;;;;;;;3.45;1.80;;;;;;;11.50;100.00;98599.97;5230917;28;20032;-77
2022/09/27 09:58:07;;;;;;;5.45;1.95;;;;;;;11.43;100.00;98604.78;5238792;28;20024;-75
2022/09/27 10:00:39;;;;;;;7.57;2.20;;;;;;;11.70;100.00;98610.72;5230868;28;20502;-77
2022/09/27 10:03:09;;;;;;;3.38;1.95;;;;;;;11.80;100.00;98605.66;5254968;28;20070;-77
2022/09/27 10:05:43;;;;;;;10.00;2.20;;;;;;;11.94;100.00;98595.84;5251667;28;20486;-76
2022/09/27 10:08:20;;;;;;;5.60;1.60;;;;;;;12.26;100.00;98586.50;5253454;28;20051;-76
2022/09/27 10:10:50;;;;;;;4.20;1.58;;;;;;;12.54;100.00;98591.34;5234379;28;20021;-76
2022/09/27 10:13:21;;;;;;;4.32;1.55;;;;;;;12.42;100.00;98589.63;5253259;28;20400;-76
2022/09/27 10:16:03;;;;;;;3.30;1.40;;;;;;;12.21;100.00;98591.25;5234696;28;20532;-76
2022/09/27 10:18:36;;;;;;;3.28;1.23;;;;;;;12.19;100.00;98587.91;5256746;28;20560;-76
2022/09/27 10:21:20;;;;;;;5.15;1.50;;;;;;;12.16;100.00;98589.91;5260302;28;20115;-75
2022/09/27 10:24:10;;;;;;;3.25;0.90;;;;;;;12.06;100.00;98594.13;5254137;28;20485;-76
2022/09/27 10:26:43;;;;;;;4.07;0.90;;;;;;;11.90;100.00;98599.66;5247364;28;20052;-73
2022/09/27 10:29:22;;;;;;;2.88;1.10;;;;;;;12.06;100.00;98591.50;5253191;28;20027;-76
2022/09/27 10:31:52;;;;;;;2.05;1.05;;;;;;;12.36;100.00;98595.34;5233411;28;20047;-77
2022/09/27 10:34:34;;;;;;;3.90;1.20;;;;;;;12.55;100.00;98587.78;5253280;28;20489;-75
2022/09/27 10:37:16;;;;;;;4.15;1.02;;;;;;;12.48;100.00;98594.41;5255188;28;20373;-76
2022/09/27 10:39:49;;;;;;;2.85;0.80;;;;;;;12.37;100.00;98604.88;5235468;28;20063;-75
2022/09/27 10:42:21;;;;;;;4.55;1.20;;;;;;;12.24;100.00;98606.72;5253970;28;20025;-76
2022/09/27 10:44:51;;;;;;;2.45;0.80;;;;;;;12.31;100.00;98612.34;5252941;28;20024;-75
2022/09/27 10:47:25;;;;;;;3.65;0.90;;;;;;;12.69;100.00;98611.16;5252995;28;20081;-76
2022/09/27 10:50:03;;;;;;;4.60;0.98;;;;;;;12.71;100.00;98609.25;5258517;28;20035;-76
2022/09/27 10:52:34;;;;;;;6.45;1.30;;;;;;;12.93;100.00;98608.47;5256979;28;20424;-75
2022/09/27 10:55:22;;;;;;;3.47;0.90;;;;;;;12.93;100.00;98604.09;5232542;28;20077;-75
2022/09/27 10:57:54;;;;;;;2.13;0.95;;;;;;;12.74;100.00;98614.28;5245900;28;20107;-76
2022/09/27 11:00:36;;;;;;;4.63;1.10;;;;;;;13.01;100.00;98612.19;5228934;28;20055;-75
2022/09/27 11:03:15;;;;;;;2.80;0.82;;;;;;;13.08;100.00;98608.16;5233219;28;20676;-75
2022/09/27 11:05:45;;;;;;;2.42;0.80;;;;;;;13.11;100.00;98607.91;5253112;28;20517;-74
2022/09/27 11:08:19;;;;;;;3.63;0.95;;;;;;;13.10;100.00;98616.75;5229953;28;20025;-76
2022/09/27 11:11:18;;;;;;;1.33;0.60;;;;;;;13.27;100.00;98608.41;5250764;28;20032;-74
2022/09/27 11:13:58;;;;;;;3.05;0.70;;;;;;;13.09;100.00;98615.06;5252454;28;20020;-77
2022/09/27 11:16:46;;;;;;;3.45;0.77;;;;;;;13.02;100.00;98608.63;5251259;28;20049;-76
2022/09/27 11:19:25;;;;;;;1.38;0.55;;;;;;;13.04;100.00;98606.72;5249781;28;20484;-75
2022/09/27 11:22:23;;;;;;;4.28;0.80;;;;;;;12.89;100.00;98613.94;5238909;28;20127;-76
2022/09/27 11:25:27;;;;;;;3.85;0.80;;;;;;;12.73;100.00;98609.97;5254995;28;20036;-77
2022/09/27 11:28:26;;;;;;;3.30;0.68;;;;;;;12.59;100.00;98602.31;5247939;28;20433;-77
2022/09/27 11:31:18;;;;;;;1.77;0.50;;;;;;;13.08;100.00;98608.16;5252685;28;20036;-75
2022/09/27 11:34:09;;;;;;;2.80;0.60;;;;;;;13.23;100.00;98606.97;5251328;28;20025;-76
2022/09/27 11:36:52;;;;;;;4.97;0.50;;;;;;;13.42;100.00;98608.03;5231632;28;20060;-77
2022/09/27 11:39:42;;;;;;;1.92;0.50;;;;;;;13.56;100.00;98601.72;5250761;28;20099;-77
2022/09/27 11:42:38;;;;;;;1.17;0.40;;;;;;;13.53;100.00;98613.28;5236243;28;20040;-76
2022/09/27 11:45:35;;;;;;;2.15;0.63;;;;;;;13.77;100.00;98607.88;5242736;28;20047;-76
2022/09/27 11:48:18;;;;;;;2.53;0.60;;;;;;;13.60;100.00;98608.38;5254000;28;20516;-76
2022/09/27 11:51:28;;;;;;;4.30;0.60;;;;;;;13.37;99.77;98615.44;5245520;28;20032;-78
2022/09/27 11:54:13;;;;;;;3.78;0.75;;;;;;;13.31;99.51;98623.81;5209196;28;20532;-75
2022/09/27 11:56:50;;;;;;;2.83;0.67;;;;;;;13.04;98.09;98625.91;5256049;28;20425;-75
2022/09/27 11:59:29;;;;;;;2.88;0.40;;;;;;;12.86;98.95;98625.59;5251843;28;20415;-76
2022/09/27 12:02:08;;;;;;;2.55;0.50;;;;;;;12.69;100.00;98642.63;5253511;28;20161;-75
2022/09/27 12:05:07;;;;;;;1.40;0.52;;;;;;;12.54;100.00;98635.91;5250198;28;20028;-75
2022/09/27 12:08:16;;;;;;;2.83;0.50;;;;;;;12.39;100.00;98655.38;5251308;28;20034;-76
2022/09/27 12:10:50;;;;;;;1.38;0.47;;;;;;;12.16;100.00;98648.31;5251576;28;20287;-75
2022/09/27 12:13:32;;;;;;;2.70;0.60;;;;;;;12.04;100.00;98638.75;5251575;28;20487;-75